Time;durP1;ratioP1;P1;durP2;ratioP2;P2;SDS_P1;SDS_P2;PMS_P1;PMS_P2;Temp;Humidity;BMP_temperature;BMP_pressure;BME280_temperature;BME280_humidity;BME280_pressure;Samples;Min_cycle;Max_cycle;Signal;HPM_P1;HPM_P2
2023/02/05 00:01:04;;;;;;;8.10;3.60;;;;;;;-3.31;67.83;101949.33;107688;1250;114412;-60
2023/02/05 00:03:41;;;;;;;6.20;3.50;;;;;;;-3.29;67.42;101954.92;107703;1250;109413;-60
2023/02/05 00:06:10;;;;;;;11.10;4.10;;;;;;;-3.27;67.85;101957.34;107654;1250;108810;-60
2023/02/05 00:08:39;;;;;;;4.80;2.90;;;;;;;-3.27;68.11;101959.63;107599;1249;99185;-59
2023/02/05 00:11:10;;;;;;;7.70;3.40;;;;;;;-3.25;67.96;101963.98;107649;1251;99059;-61
2023/02/05 00:13:40;;;;;;;6.00;3.40;;;;;;;-3.23;68.41;101966.95;107742;1250;113893;-59
2023/02/05 00:16:17;;;;;;;9.30;4.30;;;;;;;-3.25;68.44;101969.96;107647;1250;109771;-59
2023/02/05 00:18:46;;;;;;;8.40;3.60;;;;;;;-3.29;68.47;101968.42;107650;1250;108323;-58
2023/02/05 00:21:15;;;;;;;6.00;4.10;;;;;;;-3.31;68.73;101967.91;107725;1250;99204;-61
2023/02/05 00:23:43;;;;;;;6.90;3.80;;;;;;;-3.32;68.18;101969.33;107713;1250;99733;-61
2023/02/05 00:26:13;;;;;;;8.10;3.50;;;;;;;-3.30;68.24;101965.64;107699;1250;112735;-60
2023/02/05 00:28:41;;;;;;;4.80;3.20;;;;;;;-3.31;68.17;101965.83;107748;1253;109986;-60
2023/02/05 00:31:19;;;;;;;6.90;4.00;;;;;;;-3.32;68.43;101968.63;107648;1250;108133;-59
2023/02/05 00:33:49;;;;;;;7.20;4.20;;;;;;;-3.33;68.53;101971.28;107775;1249;99202;-59
2023/02/05 00:36:20;;;;;;;7.30;4.10;;;;;;;-3.36;68.57;101970.43;107709;1249;99070;-61
2023/02/05 00:38:49;;;;;;;7.40;4.20;;;;;;;-3.40;68.71;101972.77;107648;1250;112647;-59
2023/02/05 00:41:19;;;;;;;7.70;4.50;;;;;;;-3.42;68.76;101974.02;107748;1249;109076;-61
2023/02/05 00:43:47;;;;;;;6.40;3.80;;;;;;;-3.44;68.38;101971.75;107643;1250;108519;-60
2023/02/05 00:46:15;;;;;;;5.50;3.30;;;;;;;-3.45;69.22;101975.27;107693;1250;99195;-61
2023/02/05 00:48:44;;;;;;;7.00;3.90;;;;;;;-3.45;69.28;101972.83;107681;1250;99061;-60
2023/02/05 00:51:12;;;;;;;6.90;3.40;;;;;;;-3.47;69.26;101973.89;107711;1249;113293;-59
2023/02/05 00:53:41;;;;;;;7.30;4.10;;;;;;;-3.49;69.54;101975.30;107703;1253;109682;-60
2023/02/05 00:56:09;;;;;;;6.30;3.50;;;;;;;-3.50;69.86;101973.23;107653;1249;108738;-60
2023/02/05 00:58:38;;;;;;;8.80;3.40;;;;;;;-3.52;69.55;101975.69;107706;1250;99176;-60
2023/02/05 01:01:06;;;;;;;6.60;3.00;;;;;;;-3.54;69.59;101974.84;107745;1253;99164;-59
2023/02/05 01:03:35;;;;;;;7.10;3.00;;;;;;;-3.55;69.70;101971.00;107645;1250;114359;-60
2023/02/05 01:06:04;;;;;;;5.90;3.80;;;;;;;-3.55;69.92;101969.42;107698;1250;109651;-59
2023/02/05 01:08:33;;;;;;;6.90;3.40;;;;;;;-3.54;69.55;101972.04;107690;1250;108294;-60
2023/02/05 01:11:06;;;;;;;7.40;3.30;;;;;;;-3.52;70.22;101964.81;107683;1251;99176;-60
2023/02/05 01:13:36;;;;;;;7.20;3.60;;;;;;;-3.52;70.39;101965.18;107771;1249;99086;-59
2023/02/05 01:16:07;;;;;;;9.10;3.60;;;;;;;-3.52;70.11;101963.77;107695;1250;112866;-60
2023/02/05 01:18:35;;;;;;;7.90;3.60;;;;;;;-3.52;70.20;101961.30;107706;1250;110608;-60
2023/02/05 01:21:03;;;;;;;4.90;3.20;;;;;;;-3.51;70.16;101962.19;107611;1251;108064;-59
2023/02/05 01:23:32;;;;;;;4.80;2.70;;;;;;;-3.52;69.99;101960.96;107644;1251;99205;-61
2023/02/05 01:26:01;;;;;;;4.50;2.80;;;;;;;-3.53;70.16;101962.90;107689;1249;99756;-61
2023/02/05 01:28:29;;;;;;;8.30;4.90;;;;;;;-3.53;70.11;101964.48;107661;1250;113605;-59
2023/02/05 01:30:58;;;;;;;5.50;3.30;;;;;;;-3.51;69.80;101966.92;107666;1250;109537;-59
2023/02/05 01:33:26;;;;;;;4.40;2.90;;;;;;;-3.50;70.11;101965.33;107737;1249;108755;-60
2023/02/05 01:35:55;;;;;;;5.80;3.30;;;;;;;-3.49;70.52;101966.89;107697;1250;99099;-61
2023/02/05 01:38:24;;;;;;;7.60;3.00;;;;;;;-3.44;70.67;101972.63;107723;1251;99703;-59
2023/02/05 01:40:52;;;;;;;4.90;3.00;;;;;;;-3.41;70.48;101972.95;107692;1249;112685;-60
2023/02/05 01:43:20;;;;;;;9.80;3.70;;;;;;;-3.39;70.35;101980.30;107680;1250;109750;-60
2023/02/05 01:45:49;;;;;;;6.40;3.60;;;;;;;-3.37;70.70;101978.16;107665;1251;108135;-61
2023/02/05 01:48:23;;;;;;;8.50;3.20;;;;;;;-3.32;70.63;101981.27;107650;1250;99221;-60
2023/02/05 01:50:54;;;;;;;;;;;;;;;-3.26;70.75;101981.20;107713;1249;99269;-60
2023/02/05 01:53:31;;;;;;;6.60;3.70;;;;;;;-3.23;70.98;101981.35;107765;1250;112777;-59
2023/02/05 01:56:04;;;;;;;5.60;3.20;;;;;;;-3.20;70.98;101989.02;107660;1250;109647;-59
2023/02/05 01:58:40;;;;;;;5.20;2.80;;;;;;;-3.16;70.84;101991.79;107608;1250;106696;-59
2023/02/05 02:01:09;;;;;;;4.90;3.00;;;;;;;-3.10;71.20;101991.55;107590;1250;99291;-60
2023/02/05 02:03:39;;;;;;;5.20;2.70;;;;;;;-3.06;70.98;101993.61;107679;1251;99704;-59
2023/02/05 02:06:09;;;;;;;6.20;2.70;;;;;;;-3.02;71.04;101995.85;107767;1250;112641;-58
2023/02/05 02:08:37;;;;;;;5.60;3.40;;;;;;;-2.99;71.20;101999.48;107664;1250;108972;-59
2023/02/05 02:11:09;;;;;;;5.50;2.80;;;;;;;-2.95;70.81;101999.97;107668;1253;108190;-61
2023/02/05 02:13:39;;;;;;;4.70;2.70;;;;;;;-2.95;71.01;102004.00;107727;1251;99211;-60
2023/02/05 02:16:08;;;;;;;7.50;3.20;;;;;;;-2.96;70.87;102003.66;107686;1249;99067;-61
2023/02/05 02:18:38;;;;;;;7.90;3.70;;;;;;;-2.97;71.05;102005.09;107722;1250;113610;-60
2023/02/05 02:21:15;;;;;;;4.20;2.70;;;;;;;-2.99;70.90;102007.56;107668;1253;109839;-60
2023/02/05 02:23:43;;;;;;;9.20;3.00;;;;;;;-3.02;71.34;102007.06;107640;1250;107997;-60
2023/02/05 02:26:39;;;;;;;7.80;2.70;;;;;;;-3.02;71.25;102009.34;107758;1250;99287;-60
2023/02/05 02:29:17;;;;;;;3.30;2.40;;;;;;;-3.00;71.08;102009.85;107714;1250;99063;-60
2023/02/05 02:31:54;;;;;;;5.70;2.50;;;;;;;-3.00;71.32;102016.86;107715;1250;113244;-60
2023/02/05 02:34:44;;;;;;;5.10;2.90;;;;;;;-2.97;71.19;102017.20;107693;1249;109958;-60
2023/02/05 02:37:26;;;;;;;6.40;3.80;;;;;;;-2.95;71.44;102015.77;107684;1249;108608;-61
2023/02/05 02:40:04;;;;;;;5.00;3.40;;;;;;;-2.94;71.54;102018.04;107684;1250;99817;-61
2023/02/05 02:42:41;;;;;;;3.90;2.80;;;;;;;-2.92;71.25;102019.23;107690;1250;99083;-60
2023/02/05 02:45:13;;;;;;;5.60;2.90;;;;;;;-2.88;71.64;102017.79;107698;1250;112688;-61
2023/02/05 02:47:48;;;;;;;10.70;2.90;;;;;;;-2.84;71.34;102020.02;107651;1250;109042;-60
2023/02/05 02:50:34;;;;;;;4.00;2.60;;;;;;;-2.79;71.31;102023.13;107619;1253;108311;-60
2023/02/05 02:53:18;;;;;;;6.80;2.60;;;;;;;-2.74;71.18;102022.00;107688;1250;99173;-60
2023/02/05 02:55:50;;;;;;;4.10;2.80;;;;;;;-2.70;70.89;102028.10;107619;1250;99137;-61
2023/02/05 02:58:24;;;;;;;4.10;3.10;;;;;;;-2.69;71.08;102028.25;107670;1250;112806;-60
2023/02/05 03:00:55;;;;;;;8.90;3.20;;;;;;;-2.66;71.04;102031.73;107649;1251;109068;-61
2023/02/05 03:03:27;;;;;;;6.00;2.70;;;;;;;-2.63;71.05;102032.21;107598;1249;108574;-61
2023/02/05 03:05:59;;;;;;;7.30;2.90;;;;;;;-2.59;71.02;102034.27;107640;1250;99061;-61
2023/02/05 03:08:40;;;;;;;3.80;2.30;;;;;;;-2.64;70.58;102034.88;107694;1251;99065;-60
2023/02/05 03:11:12;;;;;;;3.90;2.50;;;;;;;-2.65;70.56;102037.35;107740;1255;113719;-61
2023/02/05 03:13:43;;;;;;;4.50;2.80;;;;;;;-2.63;70.90;102041.71;107692;1251;109974;-61
2023/02/05 03:16:14;;;;;;;6.90;3.20;;;;;;;-2.61;70.13;102039.05;107666;1256;107683;-61
2023/02/05 03:18:43;;;;;;;5.70;2.40;;;;;;;-2.61;70.14;102037.29;107651;1253;99182;-61
2023/02/05 03:21:20;;;;;;;4.00;2.60;;;;;;;-2.61;69.94;102035.70;107605;1251;99188;-60
2023/02/05 03:23:48;;;;;;;3.70;2.60;;;;;;;-2.61;70.03;102034.84;107652;1251;113679;-60
2023/02/05 03:26:29;;;;;;;7.90;2.50;;;;;;;-2.63;69.69;102035.20;107672;1251;109116;-60
2023/02/05 03:29:07;;;;;;;5.10;2.80;;;;;;;-2.65;69.75;102038.40;107683;1253;108093;-61
2023/02/05 03:31:42;;;;;;;3.90;2.50;;;;;;;-2.64;69.59;102043.67;107615;1253;99196;-60
2023/02/05 03:34:45;;;;;;;3.60;2.20;;;;;;;-2.65;69.43;102044.55;107666;1251;99153;-61
2023/02/05 03:37:32;;;;;;;5.50;3.00;;;;;;;-2.64;69.39;102045.05;107606;1251;113386;-61
2023/02/05 03:40:25;;;;;;;5.00;2.90;;;;;;;-2.63;69.02;102043.98;107705;1251;108866;-59
2023/02/05 03:43:10;;;;;;;5.50;2.40;;;;;;;-2.66;68.48;102050.34;107642;1254;109266;-60
2023/02/05 03:46:05;;;;;;;4.00;2.60;;;;;;;-2.67;68.60;102053.88;107630;1255;99189;-59
2023/02/05 03:48:59;;;;;;;2.00;1.50;;;;;;;-2.69;68.48;102055.27;107616;1251;99218;-60
2023/02/05 03:51:34;;;;;;;9.90;2.30;;;;;;;-2.69;68.27;102052.65;107576;1250;113369;-60
2023/02/05 03:54:04;;;;;;;3.50;2.40;;;;;;;-2.69;67.94;102059.15;107541;1254;109863;-60
2023/02/05 03:56:44;;;;;;;4.50;1.90;;;;;;;-2.69;67.74;102059.16;107525;1250;108048;-60
2023/02/05 03:59:15;;;;;;;6.20;2.30;;;;;;;-2.68;66.86;102068.11;107536;1250;99208;-60
2023/02/05 04:01:45;;;;;;;5.10;2.50;;;;;;;-2.71;67.32;102071.14;107695;1250;99185;-60
2023/02/05 04:04:14;;;;;;;3.60;1.80;;;;;;;-2.72;67.03;102071.13;107660;1252;113531;-60
2023/02/05 04:06:46;;;;;;;3.60;2.00;;;;;;;-2.74;66.49;102071.34;107740;1251;110274;-62
2023/02/05 04:09:15;;;;;;;5.20;2.20;;;;;;;-2.77;66.49;102069.63;107680;1253;108975;-59
2023/02/05 04:11:43;;;;;;;4.80;2.60;;;;;;;-2.81;66.43;102073.02;107668;1250;99083;-59
2023/02/05 04:14:12;;;;;;;2.50;1.90;;;;;;;-2.85;66.12;102068.67;107561;1250;99077;-59
2023/02/05 04:16:41;;;;;;;3.50;2.10;;;;;;;-2.90;65.78;102074.52;107539;1250;113147;-61
2023/02/05 04:19:09;;;;;;;5.10;2.70;;;;;;;-2.93;65.84;102075.78;107713;1250;108759;-59
2023/02/05 04:21:38;;;;;;;3.30;2.20;;;;;;;-2.98;65.34;102073.38;107460;1254;107661;-60
2023/02/05 04:24:07;;;;;;;3.00;1.60;;;;;;;-3.01;65.71;102079.56;107517;1251;99181;-60
2023/02/05 04:26:36;;;;;;;2.60;1.80;;;;;;;-3.03;65.20;102081.34;107540;1250;99767;-60
2023/02/05 04:29:06;;;;;;;4.50;1.70;;;;;;;-3.05;65.08;102080.29;107492;1250;115016;-60
2023/02/05 04:31:40;;;;;;;3.20;1.80;;;;;;;-3.04;64.95;102083.27;107653;1250;109656;-60
2023/02/05 04:34:08;;;;;;;4.80;1.90;;;;;;;-3.04;65.08;102089.77;107557;1251;108669;-60
2023/02/05 04:36:38;;;;;;;2.40;1.80;;;;;;;-3.03;65.14;102093.96;107530;1250;99179;-59
2023/02/05 04:39:07;;;;;;;2.90;1.70;;;;;;;-3.03;64.85;102092.92;107536;1250;99196;-60
2023/02/05 04:41:36;;;;;;;7.20;2.50;;;;;;;-3.07;65.01;102098.92;107551;1250;112601;-59
2023/02/05 04:44:05;;;;;;;3.20;1.90;;;;;;;-3.06;65.26;102095.23;107525;1250;110108;-61
2023/02/05 04:46:34;;;;;;;3.40;2.00;;;;;;;-3.05;65.28;102097.84;107514;1250;108241;-60
2023/02/05 04:49:02;;;;;;;2.60;1.90;;;;;;;-3.07;65.30;102099.80;107509;1250;99179;-60
2023/02/05 04:51:32;;;;;;;4.80;2.50;;;;;;;-3.09;65.14;102101.93;107617;1250;99176;-60
2023/02/05 04:54:00;;;;;;;4.60;2.50;;;;;;;-3.13;65.54;102104.79;107567;1250;114192;-61
2023/02/05 04:56:29;;;;;;;4.20;2.50;;;;;;;-3.14;65.22;102105.31;107543;1250;109756;-61
2023/02/05 04:58:57;;;;;;;4.60;2.30;;;;;;;-3.17;65.57;102106.03;107503;1256;106791;-61
2023/02/05 05:01:26;;;;;;;6.10;2.90;;;;;;;-3.19;65.60;102108.87;107547;1250;99167;-61
2023/02/05 05:03:54;;;;;;;10.10;2.70;;;;;;;-3.22;65.63;102118.20;107532;1250;99159;-60
2023/02/05 05:06:23;;;;;;;4.40;2.70;;;;;;;-3.22;65.77;102117.15;107539;1250;112609;-61
2023/02/05 05:08:53;;;;;;;5.10;2.50;;;;;;;-3.25;65.96;102116.64;107507;1250;109391;-60
2023/02/05 05:11:21;;;;;;;5.10;3.00;;;;;;;-3.30;66.01;102114.23;107519;1250;107605;-60
2023/02/05 05:13:51;;;;;;;4.50;2.70;;;;;;;-3.34;65.91;102113.74;107519;1250;99206;-62
2023/02/05 05:16:19;;;;;;;3.00;2.50;;;;;;;-3.37;66.08;102116.40;107679;1249;99285;-60
2023/02/05 05:18:50;;;;;;;9.50;3.30;;;;;;;-3.38;66.12;102116.60;107641;1250;113284;-60
2023/02/05 05:21:18;;;;;;;9.10;3.00;;;;;;;-3.38;66.00;102118.00;107714;1250;109887;-59
2023/02/05 05:23:46;;;;;;;5.40;3.20;;;;;;;-3.37;66.05;102121.67;107596;1251;107000;-59
2023/02/05 05:26:15;;;;;;;6.30;3.00;;;;;;;-3.39;65.86;102135.02;107644;1251;99201;-60
2023/02/05 05:28:43;;;;;;;5.50;2.90;;;;;;;-3.40;65.72;102134.85;107663;1251;99067;-60
2023/02/05 05:31:16;;;;;;;10.40;3.40;;;;;;;-3.38;66.04;102132.73;107650;1250;112616;-60
2023/02/05 05:33:44;;;;;;;4.50;2.50;;;;;;;-3.39;66.30;102138.88;107607;1250;109041;-59
2023/02/05 05:36:13;;;;;;;10.00;3.00;;;;;;;-3.44;66.30;102145.58;107667;1253;107881;-61
2023/02/05 05:38:42;;;;;;;8.90;4.10;;;;;;;-3.49;66.61;102149.65;107595;1253;99368;-60
2023/02/05 05:44:07;;;;;;;4.70;3.50;;;;;;;-3.60;67.25;102144.30;107641;1249;113198;-60
2023/02/05 05:46:36;;;;;;;9.90;4.80;;;;;;;-3.57;67.26;102147.44;107950;1251;109001;-60
2023/02/05 05:49:05;;;;;;;11.60;5.40;;;;;;;-3.52;67.17;102150.73;107772;1250;107821;-60
2023/02/05 05:51:33;;;;;;;9.70;4.10;;;;;;;-3.48;67.05;102154.21;107583;1251;99056;-61
2023/02/05 05:54:02;;;;;;;7.90;4.80;;;;;;;-3.48;67.15;102155.60;107567;1250;100414;-59
2023/02/05 05:56:30;;;;;;;9.70;3.70;;;;;;;-3.46;66.97;102159.29;107620;1251;111702;-60
2023/02/05 05:58:59;;;;;;;5.00;3.90;;;;;;;-3.40;67.09;102159.23;107658;1250;109752;-60
2023/02/05 06:01:27;;;;;;;7.40;3.50;;;;;;;-3.37;67.11;102162.38;107651;1250;108206;-60
2023/02/05 06:03:56;;;;;;;4.50;2.90;;;;;;;-3.37;66.69;102166.23;107615;1250;99192;-60
2023/02/05 06:06:25;;;;;;;6.60;3.10;;;;;;;-3.41;66.38;102172.39;107686;1250;99144;-60
2023/02/05 06:08:53;;;;;;;7.20;4.10;;;;;;;-3.41;66.38;102176.27;107680;1251;112592;-59
2023/02/05 06:11:22;;;;;;;11.80;5.00;;;;;;;-3.47;66.61;102178.93;107646;1253;109141;-59
2023/02/05 06:13:50;;;;;;;13.40;5.00;;;;;;;-3.49;66.75;102183.85;107606;1251;108808;-60
2023/02/05 06:16:19;;;;;;;7.80;3.90;;;;;;;-3.49;66.83;102187.73;107650;1250;99649;-61
2023/02/05 06:18:47;;;;;;;31.60;15.00;;;;;;;-3.47;67.55;102192.27;107639;1250;99830;-61
2023/02/05 06:21:15;;;;;;;11.90;6.60;;;;;;;-3.44;66.94;102191.89;107642;1249;113216;-60
2023/02/05 06:23:44;;;;;;;8.10;4.10;;;;;;;-3.41;67.00;102188.36;107603;1250;109141;-61
2023/02/05 06:26:12;;;;;;;10.10;3.80;;;;;;;-3.35;66.85;102192.70;107634;1250;107739;-61
2023/02/05 06:28:41;;;;;;;8.60;4.60;;;;;;;-3.32;66.86;102197.24;107641;1250;99189;-61
2023/02/05 06:31:09;;;;;;;7.30;3.70;;;;;;;-3.34;66.85;102194.97;107614;1250;99058;-60
2023/02/05 06:33:37;;;;;;;7.60;3.80;;;;;;;-3.34;66.73;102197.08;107613;1251;112589;-60
2023/02/05 06:36:06;;;;;;;11.00;3.70;;;;;;;-3.27;67.11;102199.30;107650;1253;109696;-60
2023/02/05 06:38:35;;;;;;;13.50;4.30;;;;;;;-3.19;67.16;102203.46;107654;1251;108576;-61
2023/02/05 06:41:03;;;;;;;7.30;3.70;;;;;;;-3.15;66.58;102199.39;107651;1251;99188;-61
2023/02/05 06:43:32;;;;;;;11.50;3.70;;;;;;;-3.11;66.24;102202.52;107623;1251;99713;-60
2023/02/05 06:46:00;;;;;;;7.00;3.50;;;;;;;-3.15;66.11;102210.61;107605;1250;112776;-61
2023/02/05 06:48:29;;;;;;;10.90;4.00;;;;;;;-3.20;65.80;102211.02;107630;1250;109608;-59
2023/02/05 06:50:58;;;;;;;7.60;3.80;;;;;;;-3.23;65.90;102209.62;107647;1251;107698;-61
2023/02/05 06:53:26;;;;;;;7.00;3.70;;;;;;;-3.23;65.97;102209.11;107587;1250;99318;-60
2023/02/05 06:55:57;;;;;;;7.30;3.60;;;;;;;-3.22;66.10;102209.44;107624;1250;99173;-60
2023/02/05 06:58:26;;;;;;;6.70;3.60;;;;;;;-3.21;66.42;102209.08;107671;1250;113206;-64
2023/02/05 07:00:54;;;;;;;7.80;4.00;;;;;;;-3.20;66.18;102211.01;107643;1251;109267;-60
2023/02/05 07:03:23;;;;;;;8.70;4.50;;;;;;;-3.22;65.68;102214.71;107613;1249;108103;-62
2023/02/05 07:05:51;;;;;;;9.90;5.10;;;;;;;-3.21;66.23;102219.61;107616;1253;99268;-61
2023/02/05 07:08:20;;;;;;;9.50;4.80;;;;;;;-3.13;66.13;102220.95;107632;1250;99389;-60
2023/02/05 07:10:48;;;;;;;8.00;4.60;;;;;;;-3.03;66.14;102225.27;107609;1250;112500;-60
2023/02/05 07:13:16;;;;;;;6.80;3.80;;;;;;;-2.97;66.10;102225.73;107620;1251;109711;-59
2023/02/05 07:15:46;;;;;;;7.80;4.10;;;;;;;-2.95;65.58;102232.57;107636;1250;109125;-59
2023/02/05 07:18:14;;;;;;;13.70;4.60;;;;;;;-2.99;65.42;102226.63;107622;1250;99772;-61
2023/02/05 07:20:43;;;;;;;7.90;3.90;;;;;;;-2.94;65.62;102228.18;107628;1250;99050;-61
2023/02/05 07:23:11;;;;;;;9.80;4.10;;;;;;;-2.88;65.43;102227.94;107606;1250;112805;-59
2023/02/05 07:25:39;;;;;;;18.70;4.60;;;;;;;-2.87;65.22;102229.87;107630;1250;110318;-60
2023/02/05 07:28:08;;;;;;;8.90;4.70;;;;;;;-2.90;65.06;102228.83;107599;1250;108823;-60
2023/02/05 07:30:36;;;;;;;11.70;5.00;;;;;;;-2.91;65.02;102227.45;107625;1250;99646;-60
2023/02/05 07:33:05;;;;;;;10.20;4.60;;;;;;;-2.83;65.14;102231.59;107625;1251;99725;-59
2023/02/05 07:35:36;;;;;;;9.30;4.50;;;;;;;-2.76;65.10;102229.41;107656;1253;114327;-60
2023/02/05 07:38:05;;;;;;;7.60;4.30;;;;;;;-2.68;64.87;102226.35;107689;1249;108960;-60
2023/02/05 07:40:33;;;;;;;8.00;4.80;;;;;;;-2.63;65.09;102230.87;107630;1250;108751;-60
2023/02/05 07:43:01;;;;;;;12.70;5.60;;;;;;;-2.62;65.04;102231.38;107628;1251;99168;-61
2023/02/05 07:45:29;;;;;;;11.30;5.40;;;;;;;-2.58;64.95;102227.83;107667;1253;99274;-61
2023/02/05 07:47:58;;;;;;;10.30;4.50;;;;;;;-2.51;64.96;102230.23;107673;1250;112740;-60
2023/02/05 07:50:27;;;;;;;9.70;4.40;;;;;;;-2.44;64.95;102231.38;107654;1251;110110;-60
2023/02/05 07:52:56;;;;;;;8.60;5.50;;;;;;;-2.36;64.50;102239.73;107610;1250;108549;-60
2023/02/05 07:55:24;;;;;;;13.40;6.50;;;;;;;-2.36;64.22;102236.38;107653;1253;99076;-60
2023/02/05 07:57:53;;;;;;;17.90;5.80;;;;;;;-2.32;64.47;102239.86;107693;1250;99707;-60
2023/02/05 08:00:23;;;;;;;20.00;8.60;;;;;;;-2.24;64.13;102237.48;107743;1250;113075;-60
2023/02/05 08:02:51;;;;;;;10.30;5.20;;;;;;;-2.21;64.32;102245.89;107516;1250;110093;-61
2023/02/05 08:05:20;;;;;;;14.00;6.90;;;;;;;-2.27;64.22;102240.85;107406;1251;108209;-61
2023/02/05 08:07:48;;;;;;;10.50;4.10;;;;;;;-2.20;64.37;102238.33;107371;1253;99262;-62
2023/02/05 08:10:17;;;;;;;20.50;9.40;;;;;;;-2.08;64.36;102235.70;107399;1250;99803;-61
2023/02/05 08:12:45;;;;;;;10.40;4.60;;;;;;;-2.04;64.21;102239.89;107379;1251;112131;-61
2023/02/05 08:15:14;;;;;;;17.40;6.80;;;;;;;-2.00;63.97;102238.95;107448;1251;110128;-62
2023/02/05 08:17:42;;;;;;;11.40;4.70;;;;;;;-1.93;63.57;102237.10;107346;1253;107855;-62
2023/02/05 08:20:12;;;;;;;10.90;4.50;;;;;;;-1.90;63.27;102239.89;107390;1251;99175;-60
2023/02/05 08:22:42;;;;;;;12.10;5.50;;;;;;;-1.94;63.17;102238.70;107500;1250;99202;-60
2023/02/05 08:25:13;;;;;;;11.10;5.40;;;;;;;-1.94;63.04;102236.60;107435;1251;112646;-59
2023/02/05 08:27:42;;;;;;;6.90;4.50;;;;;;;-1.95;63.05;102239.60;107584;1256;109712;-62
2023/02/05 08:30:15;;;;;;;16.10;6.40;;;;;;;-1.92;63.13;102238.87;107489;1253;106826;-60
2023/02/05 08:32:48;;;;;;;7.40;4.00;;;;;;;-1.84;63.31;102238.40;107638;1253;99062;-60
2023/02/05 08:35:17;;;;;;;13.10;6.40;;;;;;;-1.79;62.84;102240.45;107580;1251;99251;-61
2023/02/05 08:37:46;;;;;;;11.80;6.30;;;;;;;-1.83;62.47;102239.80;107667;1250;113289;-61
2023/02/05 08:40:14;;;;;;;9.10;4.40;;;;;;;-1.84;62.18;102249.33;107642;1253;110693;-60
2023/02/05 08:42:43;;;;;;;8.20;4.10;;;;;;;-1.75;62.59;102248.14;107601;1251;108792;-61
2023/02/05 08:45:11;;;;;;;8.20;4.00;;;;;;;-1.55;62.26;102245.21;107606;1253;99213;-60
2023/02/05 08:47:39;;;;;;;4.80;3.10;;;;;;;-1.42;60.62;102246.45;107565;1253;99817;-62
2023/02/05 08:50:09;;;;;;;8.50;3.50;;;;;;;-1.42;60.31;102242.04;107596;1249;113210;-60
2023/02/05 08:52:38;;;;;;;8.60;3.40;;;;;;;-1.35;59.52;102242.82;107630;1250;110374;-59
2023/02/05 08:55:07;;;;;;;6.80;3.10;;;;;;;-1.21;58.91;102241.20;107616;1251;108029;-62
2023/02/05 08:57:36;;;;;;;7.50;3.50;;;;;;;-1.12;58.60;102241.23;107567;1253;99303;-61
2023/02/05 09:00:05;;;;;;;10.20;4.50;;;;;;;-1.01;58.94;102242.64;107649;1253;99175;-61
2023/02/05 09:02:34;;;;;;;19.30;4.40;;;;;;;-0.98;59.02;102239.96;107621;1251;113776;-60
2023/02/05 09:05:03;;;;;;;7.00;4.40;;;;;;;-1.06;59.52;102240.08;107616;1251;109732;-60
2023/02/05 09:07:38;;;;;;;;;;;;;;;-0.94;59.99;102236.00;107642;1250;108566;-61
2023/02/05 09:10:09;;;;;;;11.30;3.90;;;;;;;-0.55;60.10;102237.09;107592;1252;99210;-59
2023/02/05 09:12:38;;;;;;;6.20;4.20;;;;;;;-0.10;58.38;102232.16;107605;1253;99701;-60
2023/02/05 09:15:07;;;;;;;5.70;3.70;;;;;;;0.48;57.23;102221.91;107653;1253;113593;-61
2023/02/05 09:17:35;;;;;;;9.30;3.50;;;;;;;1.24;54.53;102216.36;107643;1251;107532;-59
2023/02/05 09:20:04;;;;;;;8.90;3.70;;;;;;;1.70;52.34;102212.64;107578;1253;107631;-61
2023/02/05 09:22:33;;;;;;;11.60;5.70;;;;;;;2.39;51.38;102218.60;107639;1252;99169;-60
2023/02/05 09:25:01;;;;;;;8.80;4.80;;;;;;;2.80;50.14;102217.83;107751;1251;99201;-60
2023/02/05 09:27:30;;;;;;;10.60;4.80;;;;;;;3.22;49.12;102211.13;107618;1253;113049;-61
2023/02/05 09:29:58;;;;;;;5.60;3.50;;;;;;;3.54;47.44;102203.43;107798;1254;108860;-59
2023/02/05 09:32:27;;;;;;;9.40;3.90;;;;;;;3.14;47.93;102205.71;107583;1251;107018;-60
2023/02/05 09:34:55;;;;;;;13.60;3.80;;;;;;;3.10;49.65;102201.44;107763;1256;99221;-61
2023/02/05 09:37:23;;;;;;;11.00;5.50;;;;;;;2.60;50.11;102202.69;107705;1251;99110;-59
2023/02/05 09:39:52;;;;;;;8.10;3.90;;;;;;;2.13;50.98;102203.09;107681;1253;112183;-60
2023/02/05 09:42:59;;;;;;;3.80;2.90;;;;;;;1.92;50.65;102195.93;107668;1253;110192;-60
2023/02/05 09:45:40;;;;;;;3.10;2.40;;;;;;;1.84;48.74;102189.80;107658;1253;109247;-60
2023/02/05 09:48:37;;;;;;;5.10;3.00;;;;;;;1.55;48.89;102193.97;107597;1254;99160;-61
2023/02/05 09:51:10;;;;;;;3.30;1.90;;;;;;;2.65;47.49;102192.09;107662;1251;99748;-61
2023/02/05 09:53:44;;;;;;;5.70;2.40;;;;;;;3.14;43.74;102192.59;107652;1251;113583;-61
2023/02/05 09:56:15;;;;;;;5.60;2.50;;;;;;;2.78;44.33;102187.26;107625;1250;110190;-61
2023/02/05 09:58:50;;;;;;;3.40;2.20;;;;;;;2.48;43.93;102188.22;107606;1251;108797;-60
2023/02/05 10:01:34;;;;;;;13.10;4.50;;;;;;;2.42;43.98;102184.86;107583;1251;99076;-61
2023/02/05 10:04:05;;;;;;;20.30;8.40;;;;;;;2.99;43.31;102177.13;107870;1251;99201;-62
2023/02/05 10:06:52;;;;;;;7.40;2.80;;;;;;;3.77;42.65;102174.73;107609;1250;113718;-62
2023/02/05 10:09:39;;;;;;;6.80;3.30;;;;;;;3.74;42.28;102177.89;107629;1251;109680;-63
2023/02/05 10:12:35;;;;;;;4.30;2.50;;;;;;;3.11;44.69;102172.69;107598;1252;108489;-60
2023/02/05 10:15:39;;;;;;;4.90;3.00;;;;;;;2.53;45.19;102179.91;107628;1251;99168;-60
2023/02/05 10:18:20;;;;;;;8.00;2.90;;;;;;;1.84;45.80;102176.88;107630;1251;99183;-60
2023/02/05 10:21:12;;;;;;;3.20;2.20;;;;;;;1.77;46.05;102177.78;107631;1253;113440;-60
2023/02/05 10:24:05;;;;;;;8.80;2.80;;;;;;;3.09;45.75;102170.77;107612;1252;109127;-59
2023/02/05 10:26:48;;;;;;;3.70;2.50;;;;;;;4.66;40.96;102159.71;107615;1251;108102;-61
2023/02/05 10:29:31;;;;;;;5.30;3.00;;;;;;;4.32;39.37;102162.71;107627;1253;99186;-61
2023/02/05 10:32:18;;;;;;;8.20;3.00;;;;;;;3.65;40.62;102175.00;104091;1296;635173;-60
2023/02/05 10:35:02;;;;;;;8.30;3.60;;;;;;;2.75;42.11;102178.48;106595;1267;95826;-60
2023/02/05 10:37:54;;;;;;;12.70;3.30;;;;;;;2.60;43.25;102179.33;106678;1267;95922;-60
2023/02/05 10:40:31;;;;;;;4.80;2.50;;;;;;;3.76;41.41;102177.06;107396;1257;108293;-59
2023/02/05 10:43:09;;;;;;;8.40;2.80;;;;;;;4.82;40.43;102169.36;107316;1257;109543;-60
2023/02/05 10:45:38;;;;;;;4.40;2.00;;;;;;;5.52;37.65;102159.44;106768;1257;902160;-61
2023/02/05 10:48:24;;;;;;;4.20;2.80;;;;;;;5.20;36.59;102167.04;107555;1254;95797;-61
2023/02/05 10:51:40;;;;;;;3.90;2.80;;;;;;;4.49;38.19;102165.71;107616;1254;95786;-60
2023/02/05 10:54:22;;;;;;;9.00;3.10;;;;;;;3.83;38.48;102172.92;107632;1256;106608;-60
2023/02/05 10:56:50;;;;;;;4.40;3.20;;;;;;;3.37;39.25;102171.07;107611;1257;109773;-61
2023/02/05 10:59:26;;;;;;;5.00;2.70;;;;;;;3.01;39.97;102172.66;107558;1253;107655;-60
2023/02/05 11:02:00;;;;;;;2.90;1.90;;;;;;;2.67;40.06;102167.96;107572;1253;95789;-61
2023/02/05 11:05:04;;;;;;;5.10;3.30;;;;;;;2.25;41.07;102172.11;107557;1254;95886;-60
2023/02/05 11:07:39;;;;;;;7.50;2.50;;;;;;;1.83;42.30;102182.94;106943;1262;109186;-60
2023/02/05 11:10:14;;;;;;;4.50;3.10;;;;;;;1.72;42.89;102181.80;107450;1256;109738;-60
2023/02/05 11:12:45;;;;;;;8.00;3.00;;;;;;;1.82;42.86;102179.76;107498;1254;108272;-60
2023/02/05 11:15:24;;;;;;;8.80;3.10;;;;;;;1.81;43.02;102185.99;107553;1254;95807;-60
2023/02/05 11:18:05;;;;;;;8.30;2.90;;;;;;;1.73;43.00;102176.13;107609;1254;95791;-59
2023/02/05 11:20:38;;;;;;;5.10;3.00;;;;;;;1.52;43.01;102180.08;107543;1254;108605;-60
2023/02/05 11:23:29;;;;;;;4.80;3.20;;;;;;;1.31;43.65;102173.40;107594;1257;110042;-60
2023/02/05 11:26:06;;;;;;;10.90;3.00;;;;;;;0.97;44.42;102176.77;107494;1258;107195;-60
2023/02/05 11:28:38;;;;;;;4.00;2.50;;;;;;;0.75;44.54;102177.48;107556;1256;95777;-61
2023/02/05 11:31:35;;;;;;;10.60;2.60;;;;;;;0.58;44.88;102174.73;107602;1256;95850;-62
2023/02/05 11:34:06;;;;;;;6.70;3.50;;;;;;;0.40;45.37;102180.27;107569;1257;109097;-60
2023/02/05 11:36:55;;;;;;;4.90;2.80;;;;;;;0.25;45.72;102179.73;107600;1256;109381;-62
2023/02/05 11:39:23;;;;;;;4.60;3.10;;;;;;;0.16;46.24;102183.12;107577;1254;108428;-60